createdAt,value
2023-01-08T00:01:08.121Z,3.70
2023-01-08T00:03:34.979Z,3.30
2023-01-08T00:06:06.848Z,3.50
2023-01-08T00:08:34.062Z,3.80
2023-01-08T00:11:00.749Z,3.17
2023-01-08T00:13:27.618Z,3.70
2023-01-08T00:15:54.466Z,3.60
2023-01-08T00:18:21.083Z,3.17
2023-01-08T00:20:48.470Z,3.83
2023-01-08T00:23:16.986Z,3.75
2023-01-08T00:25:43.953Z,3.47
2023-01-08T00:28:10.628Z,3.72
2023-01-08T00:30:37.752Z,3.45
2023-01-08T00:33:04.202Z,3.50
2023-01-08T00:35:30.643Z,3.60
2023-01-08T00:37:57.028Z,3.80
2023-01-08T00:40:23.405Z,3.33
2023-01-08T00:42:49.793Z,3.35
2023-01-08T00:45:16.279Z,3.45
2023-01-08T00:47:42.625Z,3.33
2023-01-08T00:50:09.515Z,3.93
2023-01-08T00:52:35.949Z,3.80
2023-01-08T00:55:02.329Z,3.80
2023-01-08T00:57:34.142Z,3.88
2023-01-08T01:00:00.665Z,3.80
2023-01-08T01:02:27.806Z,3.83
2023-01-08T01:04:54.325Z,3.72
2023-01-08T01:07:20.772Z,3.53
2023-01-08T01:09:47.113Z,3.92
2023-01-08T01:12:13.467Z,3.78
2023-01-08T01:14:40.264Z,3.80
2023-01-08T01:17:06.618Z,3.40
2023-01-08T01:19:33.012Z,3.40
2023-01-08T01:21:59.546Z,3.22
2023-01-08T01:24:27.693Z,3.80
2023-01-08T01:26:56.321Z,3.40
2023-01-08T01:29:23.399Z,3.88
2023-01-08T01:31:49.772Z,3.28
2023-01-08T01:34:16.216Z,3.78
2023-01-08T01:36:42.740Z,3.45
2023-01-08T01:39:09.510Z,3.37
2023-01-08T01:41:41.873Z,3.08
2023-01-08T01:44:43.741Z,3.17
2023-01-08T01:47:29.775Z,3.20
2023-01-08T01:50:18.004Z,2.90
2023-01-08T01:53:07.151Z,3.37
2023-01-08T01:55:35.194Z,3.42
2023-01-08T01:58:08.761Z,3.15
2023-01-08T02:00:35.605Z,3.03
2023-01-08T02:03:02.300Z,3.15
2023-01-08T02:05:38.912Z,2.97
2023-01-08T02:08:11.062Z,2.95
2023-01-08T02:10:47.824Z,2.70
2023-01-08T02:13:20.488Z,2.95
2023-01-08T02:15:50.495Z,3.05
2023-01-08T02:18:28.034Z,3.17
2023-01-08T02:21:01.242Z,2.70
2023-01-08T02:23:36.807Z,2.72
2023-01-08T02:26:30.072Z,3.10
2023-01-08T02:29:13.640Z,3.03
2023-01-08T02:31:42.485Z,3.00
2023-01-08T02:34:10.340Z,3.58
2023-01-08T02:36:41.257Z,3.03
2023-01-08T02:39:11.207Z,2.92
2023-01-08T02:42:12.388Z,3.60
2023-01-08T02:44:50.663Z,3.60
2023-01-08T02:47:27.607Z,3.92
2023-01-08T02:50:03.696Z,3.65
2023-01-08T02:52:33.251Z,3.63
2023-01-08T02:55:02.889Z,4.53
2023-01-08T02:57:30.917Z,4.17
2023-01-08T02:59:58.525Z,4.50
2023-01-08T03:02:29.325Z,4.18
2023-01-08T03:05:03.430Z,4.40
2023-01-08T03:07:29.834Z,4.60
2023-01-08T03:09:56.286Z,5.17
2023-01-08T03:12:39.793Z,5.25
2023-01-08T03:15:12.257Z,4.72
2023-01-08T03:17:48.331Z,5.15
2023-01-08T03:20:18.181Z,6.10
2023-01-08T03:22:49.509Z,6.20
2023-01-08T03:25:19.633Z,6.32
2023-01-08T03:27:50.488Z,6.00
2023-01-08T03:30:19.415Z,5.70
2023-01-08T03:32:50.063Z,6.03
2023-01-08T03:35:20.553Z,6.03
2023-01-08T03:37:54.660Z,5.60
2023-01-08T03:40:26.003Z,5.63
2023-01-08T03:42:52.562Z,5.65
2023-01-08T03:45:20.930Z,5.45
2023-01-08T03:47:47.489Z,4.60
2023-01-08T03:50:22.697Z,5.20
2023-01-08T03:52:49.185Z,4.28
2023-01-08T03:55:15.539Z,4.30
2023-01-08T03:57:41.893Z,4.65
2023-01-08T04:00:08.888Z,3.90
2023-01-08T04:02:35.299Z,3.80
2023-01-08T04:05:01.844Z,4.18
2023-01-08T04:07:28.909Z,3.75
2023-01-08T04:09:55.288Z,3.75
2023-01-08T04:12:21.638Z,3.63
2023-01-08T04:14:47.986Z,3.80
2023-01-08T04:17:14.485Z,3.67
2023-01-08T04:19:41.114Z,2.92
2023-01-08T04:22:09.928Z,3.10
2023-01-08T04:24:36.299Z,3.10
2023-01-08T04:27:02.740Z,2.95
2023-01-08T04:29:29.112Z,2.78
2023-01-08T04:31:55.472Z,3.13
2023-01-08T04:34:21.833Z,3.17
2023-01-08T04:36:48.174Z,2.93
2023-01-08T04:39:14.560Z,2.90
2023-01-08T04:41:40.973Z,2.80
2023-01-08T04:44:07.415Z,2.80
2023-01-08T04:46:34.131Z,3.00
2023-01-08T04:49:00.515Z,2.37
2023-01-08T04:51:26.921Z,2.30
2023-01-08T04:53:53.395Z,2.10
2023-01-08T04:56:19.797Z,2.17
2023-01-08T04:58:46.154Z,2.20
2023-01-08T05:01:16.093Z,2.13
2023-01-08T05:03:42.511Z,1.85
2023-01-08T05:06:08.949Z,1.98
2023-01-08T05:08:35.539Z,2.38
2023-01-08T05:11:02.575Z,2.05
2023-01-08T05:13:29.186Z,2.10
2023-01-08T05:15:59.335Z,2.35
2023-01-08T05:18:26.213Z,2.00
2023-01-08T05:20:52.597Z,2.13
2023-01-08T05:23:19.024Z,1.98
2023-01-08T05:25:45.400Z,2.00
2023-01-08T05:28:11.761Z,2.20
2023-01-08T05:30:38.151Z,2.45
2023-01-08T05:33:04.525Z,2.15
2023-01-08T05:35:30.880Z,1.95
2023-01-08T05:37:59.938Z,2.00
2023-01-08T05:40:26.496Z,1.60
2023-01-08T05:42:53.005Z,1.60
2023-01-08T05:45:19.558Z,2.05
2023-01-08T05:47:45.892Z,1.63
2023-01-08T05:50:12.274Z,1.40
2023-01-08T05:52:38.684Z,1.20
2023-01-08T05:55:05.471Z,1.75
2023-01-08T05:57:31.816Z,1.30
2023-01-08T05:59:58.173Z,1.40
2023-01-08T06:02:24.533Z,1.70
2023-01-08T06:04:50.964Z,1.40
2023-01-08T06:07:17.306Z,1.40
2023-01-08T06:09:43.696Z,1.63
2023-01-08T06:12:10.076Z,1.70
2023-01-08T06:14:36.441Z,1.97
2023-01-08T06:17:02.804Z,2.05
2023-01-08T06:19:29.202Z,1.90
2023-01-08T06:21:56.441Z,1.98
2023-01-08T06:24:22.796Z,1.85
2023-01-08T06:26:49.148Z,1.90
2023-01-08T06:29:15.580Z,1.70
2023-01-08T06:31:42.117Z,2.08
2023-01-08T06:34:08.540Z,2.30
2023-01-08T06:36:34.922Z,2.20
2023-01-08T06:39:01.282Z,2.50
2023-01-08T06:41:27.663Z,1.90
2023-01-08T06:43:54.020Z,2.65
2023-01-08T06:46:20.404Z,2.20
2023-01-08T06:48:46.787Z,2.33
2023-01-08T06:51:13.148Z,2.30
2023-01-08T06:53:39.550Z,2.58
2023-01-08T06:56:09.246Z,2.65
2023-01-08T06:58:38.306Z,2.50
2023-01-08T07:01:04.974Z,2.90
2023-01-08T07:03:31.513Z,3.30
2023-01-08T07:05:59.049Z,3.30
2023-01-08T07:08:25.695Z,3.22
2023-01-08T07:10:52.077Z,3.05
2023-01-08T07:13:18.437Z,3.22
2023-01-08T07:15:44.842Z,3.10
2023-01-08T07:18:12.463Z,3.00
2023-01-08T07:20:39.011Z,2.90
2023-01-08T07:23:07.678Z,2.67
2023-01-08T07:25:34.073Z,2.70
2023-01-08T07:28:00.781Z,3.17
2023-01-08T07:30:30.173Z,2.72
2023-01-08T07:33:01.527Z,2.78
2023-01-08T07:35:28.326Z,3.03
2023-01-08T07:37:54.721Z,2.78
2023-01-08T07:40:21.284Z,2.47
2023-01-08T07:42:47.640Z,2.95
2023-01-08T07:45:14.019Z,2.80
2023-01-08T07:47:40.460Z,2.80
2023-01-08T07:50:07.218Z,2.47
2023-01-08T07:52:33.591Z,2.50
2023-01-08T07:54:59.946Z,2.33
2023-01-08T07:57:29.384Z,2.25
2023-01-08T07:59:55.732Z,2.40
2023-01-08T08:02:22.215Z,2.40
2023-01-08T08:04:48.638Z,2.43
2023-01-08T08:07:15.033Z,2.38
2023-01-08T08:09:41.401Z,2.00
2023-01-08T08:12:08.580Z,2.03
2023-01-08T08:14:34.978Z,1.60
2023-01-08T08:17:01.367Z,1.70
2023-01-08T08:19:27.709Z,1.60
2023-01-08T08:21:54.100Z,1.60
2023-01-08T08:24:20.447Z,1.50
2023-01-08T08:26:46.810Z,1.60
2023-01-08T08:29:13.237Z,1.80
2023-01-08T08:31:39.686Z,1.60
2023-01-08T08:34:07.834Z,1.80
2023-01-08T08:36:34.197Z,1.80
2023-01-08T08:39:02.580Z,1.90
2023-01-08T08:41:29.100Z,1.60
2023-01-08T08:43:55.434Z,1.75
2023-01-08T08:46:22.006Z,1.90
2023-01-08T08:48:48.416Z,1.85
2023-01-08T08:51:15.085Z,2.30
2023-01-08T08:53:41.433Z,1.77
2023-01-08T08:56:08.138Z,2.00
2023-01-08T08:58:34.678Z,1.95
2023-01-08T09:01:03.676Z,1.65
2023-01-08T09:03:30.613Z,1.70
2023-01-08T09:05:59.544Z,1.63
2023-01-08T09:08:26.167Z,1.70
2023-01-08T09:10:52.645Z,1.50
2023-01-08T09:13:19.176Z,1.63
2023-01-08T09:15:45.564Z,1.80
2023-01-08T09:18:12.036Z,1.80
2023-01-08T09:20:38.458Z,2.08
2023-01-08T09:23:05.236Z,1.80
2023-01-08T09:25:31.640Z,1.50
2023-01-08T09:28:06.775Z,1.85
2023-01-08T09:30:33.473Z,1.73
2023-01-08T09:33:02.755Z,1.60
2023-01-08T09:35:29.910Z,1.40
2023-01-08T09:37:56.748Z,1.40
2023-01-08T09:40:28.407Z,1.48
2023-01-08T09:42:59.742Z,1.33
2023-01-08T09:45:37.692Z,1.30
2023-01-08T09:48:12.415Z,1.35
2023-01-08T09:50:38.897Z,1.20
2023-01-08T09:53:05.528Z,1.08
2023-01-08T09:55:34.275Z,1.07
2023-01-08T09:58:03.233Z,1.27
2023-01-08T10:00:32.256Z,0.95
2023-01-08T10:02:59.081Z,1.00
2023-01-08T10:05:27.650Z,1.00
2023-01-08T10:07:54.097Z,0.90
2023-01-08T10:10:28.056Z,0.90
2023-01-08T10:12:55.370Z,0.90
2023-01-08T10:15:22.736Z,0.75
2023-01-08T10:17:59.010Z,0.95
2023-01-08T10:20:26.094Z,0.90
2023-01-08T10:22:56.954Z,1.17
2023-01-08T10:25:28.141Z,1.30
2023-01-08T10:28:00.391Z,1.00
2023-01-08T10:30:32.901Z,1.15
2023-01-08T10:33:05.148Z,0.83
2023-01-08T10:35:34.470Z,0.90
2023-01-08T10:38:01.939Z,1.00
2023-01-08T10:40:45.671Z,1.13
2023-01-08T10:43:19.272Z,1.20
2023-01-08T10:45:55.656Z,0.87
2023-01-08T10:48:33.488Z,1.40
2023-01-08T10:51:14.473Z,1.70
2023-01-08T10:53:41.643Z,1.50
2023-01-08T10:56:19.306Z,1.40
2023-01-08T10:58:45.636Z,1.20
2023-01-08T11:01:18.281Z,1.25
2023-01-08T11:03:50.997Z,1.35
2023-01-08T11:06:23.711Z,1.58
2023-01-08T11:08:52.956Z,1.50
2023-01-08T11:11:20.071Z,1.10
2023-01-08T11:13:59.212Z,1.27
2023-01-08T11:16:35.293Z,1.00
2023-01-08T11:19:01.811Z,1.30
2023-01-08T11:21:32.596Z,1.58
2023-01-08T11:24:21.162Z,1.70
2023-01-08T11:26:58.323Z,1.48
2023-01-08T11:29:33.523Z,1.20
2023-01-08T11:32:14.849Z,1.10
2023-01-08T11:34:57.245Z,1.45
2023-01-08T11:37:30.249Z,1.20
2023-01-08T11:39:57.205Z,1.35
2023-01-08T11:42:38.459Z,1.10
2023-01-08T11:45:20.248Z,1.50
2023-01-08T11:48:05.304Z,1.35
2023-01-08T11:50:38.582Z,1.20
2023-01-08T11:53:31.359Z,1.67
2023-01-08T11:56:26.282Z,1.70
2023-01-08T11:59:20.181Z,1.50
2023-01-08T12:02:03.549Z,1.80
2023-01-08T12:04:47.956Z,1.90
2023-01-08T12:07:47.156Z,2.00
2023-01-08T12:10:44.812Z,1.85
2023-01-08T12:13:38.788Z,1.63
2023-01-08T12:16:23.394Z,1.52
2023-01-08T12:18:52.711Z,1.90
2023-01-08T12:21:31.006Z,1.90
2023-01-08T12:24:22.547Z,2.05
2023-01-08T12:27:10.813Z,1.70
2023-01-08T12:29:47.055Z,2.00
2023-01-08T12:32:22.583Z,1.70
2023-01-08T12:35:15.554Z,1.90
2023-01-08T12:38:21.019Z,2.00
2023-01-08T12:41:01.172Z,1.85
2023-01-08T12:43:59.063Z,1.58
2023-01-08T12:46:28.115Z,1.63
2023-01-08T12:48:56.389Z,1.90
2023-01-08T12:51:38.711Z,1.67
2023-01-08T12:54:20.159Z,1.73
2023-01-08T12:56:55.354Z,1.50
2023-01-08T12:59:44.787Z,1.50
2023-01-08T13:02:48.739Z,1.60
2023-01-08T13:05:18.068Z,1.33
2023-01-08T13:07:51.076Z,1.90
2023-01-08T13:10:23.606Z,2.08
2023-01-08T13:12:52.141Z,2.03
2023-01-08T13:15:25.809Z,1.63
2023-01-08T13:17:54.964Z,1.52
2023-01-08T13:20:27.767Z,1.80
2023-01-08T13:22:57.384Z,1.50
2023-01-08T13:25:36.069Z,1.57
2023-01-08T13:28:27.524Z,1.52
2023-01-08T13:30:57.895Z,1.70
2023-01-08T13:33:43.222Z,2.10
2023-01-08T13:36:12.305Z,1.40
2023-01-08T13:38:39.519Z,1.70
2023-01-08T13:41:06.227Z,1.30
2023-01-08T13:43:38.736Z,1.30
2023-01-08T13:46:17.908Z,1.50
2023-01-08T13:49:19.470Z,1.77
2023-01-08T13:51:47.380Z,1.40
2023-01-08T13:54:14.617Z,1.80
2023-01-08T13:56:42.987Z,1.85
2023-01-08T13:59:38.992Z,1.50
2023-01-08T14:02:23.293Z,1.10
2023-01-08T14:04:51.519Z,1.00
2023-01-08T14:07:18.118Z,1.20
2023-01-08T14:09:44.503Z,1.10
2023-01-08T14:12:20.236Z,1.08
2023-01-08T14:14:53.438Z,1.10
2023-01-08T14:17:22.880Z,1.20
2023-01-08T14:19:49.483Z,1.00
2023-01-08T14:22:20.065Z,1.13
2023-01-08T14:24:55.550Z,1.00
2023-01-08T14:27:28.522Z,1.10
2023-01-08T14:29:55.845Z,1.07
2023-01-08T14:32:25.487Z,1.60
2023-01-08T14:34:53.844Z,1.20
2023-01-08T14:37:20.523Z,0.90
2023-01-08T14:39:48.998Z,1.20
2023-01-08T14:42:46.239Z,1.10
2023-01-08T14:45:26.761Z,1.10
2023-01-08T14:48:26.984Z,0.90
2023-01-08T14:51:04.499Z,1.05
2023-01-08T14:53:55.986Z,1.20
2023-01-08T14:56:29.972Z,1.60
2023-01-08T14:58:58.197Z,0.93
2023-01-08T15:01:30.425Z,0.90
2023-01-08T15:04:18.017Z,1.20
2023-01-08T15:06:44.667Z,2.03
2023-01-08T15:09:27.368Z,1.60
2023-01-08T15:12:02.068Z,1.40
2023-01-08T15:14:30.976Z,1.50
2023-01-08T15:17:00.289Z,2.08
2023-01-08T15:19:29.590Z,1.60
2023-01-08T15:21:59.116Z,1.27
2023-01-08T15:24:33.084Z,1.10
2023-01-08T15:27:09.580Z,1.20
2023-01-08T15:29:39.505Z,1.20
2023-01-08T15:32:14.895Z,1.08
2023-01-08T15:34:42.580Z,1.20
2023-01-08T15:37:09.393Z,1.10
2023-01-08T15:39:35.785Z,0.90
2023-01-08T15:42:39.839Z,0.88
2023-01-08T15:45:12.601Z,0.65
2023-01-08T15:47:38.970Z,1.00
2023-01-08T15:50:06.539Z,1.00
2023-01-08T15:52:34.107Z,0.75
2023-01-08T15:55:01.307Z,1.20
2023-01-08T15:57:30.350Z,0.90
2023-01-08T15:59:57.176Z,0.87
2023-01-08T16:02:24.162Z,0.80
2023-01-08T16:04:54.832Z,1.05
2023-01-08T16:07:21.724Z,0.80
2023-01-08T16:09:48.580Z,1.25
2023-01-08T16:12:15.161Z,0.80
2023-01-08T16:14:41.563Z,0.80
2023-01-08T16:17:08.887Z,1.00
2023-01-08T16:19:35.469Z,1.00
2023-01-08T16:22:01.948Z,1.00
2023-01-08T16:24:28.337Z,1.10
2023-01-08T16:26:54.696Z,2.67
2023-01-08T16:29:21.129Z,1.60
2023-01-08T16:31:48.348Z,1.40
2023-01-08T16:34:15.443Z,1.55
2023-01-08T16:36:41.786Z,1.33
2023-01-08T16:39:08.222Z,1.27
2023-01-08T16:41:35.239Z,8.13
2023-01-08T16:44:01.625Z,3.15
2023-01-08T16:46:29.443Z,2.42
2023-01-08T16:48:55.825Z,2.50
2023-01-08T16:51:22.388Z,2.20
2023-01-08T16:53:48.732Z,2.10
2023-01-08T16:56:15.087Z,1.80
2023-01-08T16:58:41.454Z,1.60
2023-01-08T17:01:10.305Z,6.07
2023-01-08T17:03:37.229Z,2.17
2023-01-08T17:06:08.625Z,2.15
2023-01-08T17:08:39.793Z,1.48
2023-01-08T17:11:10.948Z,4.93
2023-01-08T17:13:38.056Z,2.40
2023-01-08T17:16:05.917Z,2.92
2023-01-08T17:18:32.672Z,4.00
2023-01-08T17:20:59.048Z,1.80
2023-01-08T17:23:28.614Z,3.63
2023-01-08T17:25:56.831Z,1.30
2023-01-08T17:28:25.109Z,2.75
2023-01-08T17:30:52.677Z,1.75
2023-01-08T17:33:19.066Z,2.20
2023-01-08T17:35:45.427Z,2.40
2023-01-08T17:38:11.769Z,2.87
2023-01-08T17:40:38.246Z,2.38
2023-01-08T17:43:04.637Z,6.47
2023-01-08T17:45:31.022Z,7.10
2023-01-08T17:47:57.433Z,4.22
2023-01-08T17:50:23.803Z,3.17
2023-01-08T17:52:50.162Z,3.20
2023-01-08T17:55:16.650Z,4.20
2023-01-08T17:57:43.066Z,5.75
2023-01-08T18:00:10.136Z,4.10
2023-01-08T18:02:36.576Z,2.73
2023-01-08T18:05:03.003Z,2.67
2023-01-08T18:07:29.366Z,3.20
2023-01-08T18:09:57.151Z,3.28
2023-01-08T18:12:23.498Z,2.28
2023-01-08T18:14:49.872Z,3.00
2023-01-08T18:17:16.241Z,3.47
2023-01-08T18:19:42.632Z,3.50
2023-01-08T18:22:09.383Z,3.17
2023-01-08T18:24:35.811Z,3.30
2023-01-08T18:27:02.809Z,4.27
2023-01-08T18:29:29.207Z,3.90
2023-01-08T18:31:55.662Z,4.00
2023-01-08T18:34:22.061Z,3.50
2023-01-08T18:36:48.414Z,3.53
2023-01-08T18:39:14.954Z,4.53
2023-01-08T18:41:59.995Z,3.80
2023-01-08T18:44:26.493Z,3.30
2023-01-08T18:46:53.859Z,3.00
2023-01-08T18:49:21.146Z,3.10
2023-01-08T18:51:47.506Z,3.20
2023-01-08T18:54:13.918Z,3.80
2023-01-08T18:56:40.320Z,3.15
2023-01-08T18:59:07.250Z,3.10
2023-01-08T19:01:35.245Z,3.58
2023-01-08T19:04:01.979Z,3.43
2023-01-08T19:06:28.375Z,4.10
2023-01-08T19:08:56.972Z,3.33
2023-01-08T19:11:24.340Z,3.88
2023-01-08T19:13:55.461Z,3.80
2023-01-08T19:16:22.498Z,3.40
2023-01-08T19:18:50.103Z,3.78
2023-01-08T19:21:18.838Z,4.15
2023-01-08T19:23:48.713Z,4.38
2023-01-08T19:26:15.288Z,4.95
2023-01-08T19:28:42.771Z,4.50
2023-01-08T19:31:12.721Z,4.45
2023-01-08T19:33:39.648Z,4.30
2023-01-08T19:36:16.535Z,3.83
2023-01-08T19:38:44.114Z,3.78
2023-01-08T19:41:30.334Z,3.13
2023-01-08T19:43:57.373Z,3.40
2023-01-08T19:46:24.370Z,3.75
2023-01-08T19:48:51.165Z,3.90
2023-01-08T19:51:17.533Z,4.43
2023-01-08T19:53:43.875Z,4.23
2023-01-08T19:56:13.080Z,4.40
2023-01-08T19:58:39.616Z,4.43
2023-01-08T20:01:33.535Z,4.60
2023-01-08T20:04:00.050Z,4.05
2023-01-08T20:06:27.386Z,3.40
2023-01-08T20:08:57.598Z,3.28
2023-01-08T20:11:24.929Z,3.65
2023-01-08T20:13:52.307Z,4.35
2023-01-08T20:16:20.965Z,4.18
2023-01-08T20:18:48.053Z,4.60
2023-01-08T20:21:17.685Z,3.88
2023-01-08T20:23:45.003Z,3.90
2023-01-08T20:26:17.007Z,3.53
2023-01-08T20:28:44.457Z,4.75
2023-01-08T20:31:16.566Z,3.00
2023-01-08T20:33:44.139Z,4.95
2023-01-08T20:36:13.556Z,5.10
2023-01-08T20:38:41.047Z,4.72
2023-01-08T20:41:07.809Z,4.28
2023-01-08T20:43:35.138Z,5.47
2023-01-08T20:46:01.879Z,5.75
2023-01-08T20:48:31.857Z,4.72
2023-01-08T20:51:01.302Z,4.50
2023-01-08T20:53:30.206Z,4.80
2023-01-08T20:56:00.157Z,7.00
2023-01-08T20:58:26.498Z,5.90
2023-01-08T21:00:53.539Z,4.65
2023-01-08T21:03:19.909Z,4.53
2023-01-08T21:05:46.349Z,5.30
2023-01-08T21:08:12.717Z,3.70
2023-01-08T21:10:39.085Z,4.13
2023-01-08T21:13:05.432Z,3.55
2023-01-08T21:15:31.848Z,3.70
2023-01-08T21:17:58.229Z,5.90
2023-01-08T21:20:24.693Z,5.00
2023-01-08T21:22:51.053Z,5.00
2023-01-08T21:25:18.947Z,4.45
2023-01-08T21:27:45.326Z,3.92
2023-01-08T21:30:11.951Z,4.32
2023-01-08T21:32:38.374Z,4.20
2023-01-08T21:35:05.109Z,3.58
2023-01-08T21:37:31.562Z,4.35
2023-01-08T21:39:57.990Z,4.15
2023-01-08T21:42:43.044Z,4.05
2023-01-08T21:45:24.915Z,3.70
2023-01-08T21:47:52.884Z,3.92
2023-01-08T21:50:19.721Z,4.07
2023-01-08T21:53:04.590Z,4.55
2023-01-08T21:55:31.091Z,4.57
2023-01-08T21:57:57.446Z,4.90
2023-01-08T22:00:24.945Z,4.38
2023-01-08T22:02:51.303Z,4.63
2023-01-08T22:05:17.771Z,5.20
2023-01-08T22:07:44.172Z,4.40
2023-01-08T22:10:11.224Z,4.07
2023-01-08T22:12:37.589Z,3.85
2023-01-08T22:15:04.300Z,4.40
2023-01-08T22:17:30.927Z,4.90
2023-01-08T22:19:57.898Z,4.53
2023-01-08T22:22:24.424Z,4.00
2023-01-08T22:24:53.813Z,4.50
2023-01-08T22:27:21.204Z,4.97
2023-01-08T22:29:48.380Z,5.20
2023-01-08T22:32:14.830Z,4.57
2023-01-08T22:34:41.277Z,4.73
2023-01-08T22:37:07.749Z,4.47
2023-01-08T22:39:34.182Z,4.85
2023-01-08T22:42:00.653Z,4.93
2023-01-08T22:44:27.060Z,5.90
2023-01-08T22:46:53.448Z,5.73
2023-01-08T22:49:19.818Z,5.90
2023-01-08T22:51:46.178Z,5.75
2023-01-08T22:54:13.888Z,5.70
2023-01-08T22:56:40.589Z,6.13
2023-01-08T22:59:06.964Z,6.43
2023-01-08T23:01:33.365Z,6.60
2023-01-08T23:04:01.189Z,6.50
2023-01-08T23:06:29.957Z,5.57
2023-01-08T23:08:56.830Z,5.80
2023-01-08T23:11:24.845Z,6.13
2023-01-08T23:13:51.326Z,6.05
2023-01-08T23:16:19.531Z,5.00
2023-01-08T23:18:46.127Z,5.63
2023-01-08T23:21:18.069Z,4.70
2023-01-08T23:23:45.365Z,4.50
2023-01-08T23:26:18.571Z,4.28
2023-01-08T23:28:46.261Z,4.60
2023-01-08T23:31:15.224Z,5.30
2023-01-08T23:33:41.717Z,3.83
2023-01-08T23:36:08.917Z,4.10
2023-01-08T23:38:35.359Z,4.85
2023-01-08T23:41:05.822Z,5.53
2023-01-08T23:43:32.175Z,5.50
2023-01-08T23:46:02.505Z,4.93
2023-01-08T23:48:29.153Z,5.03
2023-01-08T23:50:56.380Z,5.50
2023-01-08T23:53:23.453Z,4.93
2023-01-08T23:55:50.008Z,5.40
2023-01-08T23:58:16.635Z,6.03
